sensor_id;sensor_type;location;lat;lon;timestamp;pressure;altitude;pressure_sealevel;temperature;humidity
62111;BME280;48102;47.526;19.072;2023-12-20T04:39:29;100374.53;;;-1.45;100.00
62111;BME280;48102;47.526;19.072;2023-12-20T04:42:32;100375.94;;;-1.45;100.00
62111;BME280;48102;47.526;19.072;2023-12-20T04:45:35;100360.41;;;-1.95;100.00
62111;BME280;48102;47.526;19.072;2023-12-20T04:48:39;100356.97;;;-1.90;100.00
62111;BME280;48102;47.526;19.072;2023-12-20T04:51:42;100341.50;;;-1.85;100.00
62111;BME280;48102;47.526;19.072;2023-12-20T04:54:45;100321.69;;;-1.83;100.00
62111;BME280;48102;47.526;19.072;2023-12-20T04:57:48;100331.16;;;-1.79;100.00
62111;BME280;48102;47.526;19.072;2023-12-20T05:00:52;100324.28;;;-1.72;100.00
62111;BME280;48102;47.526;19.072;2023-12-20T05:03:55;100323.38;;;-1.73;100.00
62111;BME280;48102;47.526;19.072;2023-12-20T05:06:58;100325.97;;;-1.62;100.00
62111;BME280;48102;47.526;19.072;2023-12-20T05:10:01;100317.38;;;-1.72;100.00
62111;BME280;48102;47.526;19.072;2023-12-20T05:13:04;100301.03;;;-1.68;100.00
62111;BME280;48102;47.526;19.072;2023-12-20T05:16:07;100308.75;;;-1.66;100.00
62111;BME280;48102;47.526;19.072;2023-12-20T05:19:12;100311.34;;;-1.71;100.00
62111;BME280;48102;47.526;19.072;2023-12-20T05:22:15;100298.44;;;-1.71;100.00
62111;BME280;48102;47.526;19.072;2023-12-20T05:25:17;100296.69;;;-1.66;100.00
62111;BME280;48102;47.526;19.072;2023-12-20T05:28:20;100292.38;;;-1.56;100.00
62111;BME280;48102;47.526;19.072;2023-12-20T05:31:23;100298.41;;;-1.53;100.00
62111;BME280;48102;47.526;19.072;2023-12-20T05:34:26;100312.22;;;-1.60;100.00
62111;BME280;48102;47.526;19.072;2023-12-20T05:37:30;100317.38;;;-1.58;100.00
62111;BME280;48102;47.526;19.072;2023-12-20T05:40:32;100324.25;;;-1.48;100.00
62111;BME280;48102;47.526;19.072;2023-12-20T05:43:35;100308.75;;;-1.62;100.00
62111;BME280;48102;47.526;19.072;2023-12-20T05:46:38;100297.56;;;-1.62;100.00
62111;BME280;48102;47.526;19.072;2023-12-20T05:49:43;100291.53;;;-1.69;100.00
62111;BME280;48102;47.526;19.072;2023-12-20T05:52:46;100294.97;;;-1.73;100.00
62111;BME280;48102;47.526;19.072;2023-12-20T05:55:50;100284.63;;;-1.73;100.00
62111;BME280;48102;47.526;19.072;2023-12-20T05:58:53;100279.47;;;-1.78;100.00
62111;BME280;48102;47.526;19.072;2023-12-20T06:01:56;100272.59;;;-1.83;100.00
62111;BME280;48102;47.526;19.072;2023-12-20T06:04:59;100266.59;;;-1.76;100.00
62111;BME280;48102;47.526;19.072;2023-12-20T06:08:02;100267.44;;;-1.80;100.00
62111;BME280;48102;47.526;19.072;2023-12-20T06:11:06;100266.56;;;-1.78;100.00
62111;BME280;48102;47.526;19.072;2023-12-20T06:14:09;100263.97;;;-1.78;100.00
62111;BME280;48102;47.526;19.072;2023-12-20T06:17:12;100269.16;;;-1.76;100.00
62111;BME280;48102;47.526;19.072;2023-12-20T06:20:15;100262.28;;;-1.72;100.00
62111;BME280;48102;47.526;19.072;2023-12-20T06:23:18;100263.97;;;-1.65;100.00
62111;BME280;48102;47.526;19.072;2023-12-20T06:26:21;100279.47;;;-1.65;100.00
62111;BME280;48102;47.526;19.072;2023-12-20T06:29:24;100266.56;;;-1.58;100.00
62111;BME280;48102;47.526;19.072;2023-12-20T06:32:27;100263.09;;;-1.41;100.00
62111;BME280;48102;47.526;19.072;2023-12-20T06:35:31;100268.22;;;-1.32;100.00
62111;BME280;48102;47.526;19.072;2023-12-20T06:38:38;100276.88;;;-1.38;100.00
62111;BME280;48102;47.526;19.072;2023-12-20T06:41:41;100286.34;;;-1.34;100.00
62111;BME280;48102;47.526;19.072;2023-12-20T06:44:46;100294.03;;;-1.23;100.00
62111;BME280;48102;47.526;19.072;2023-12-20T06:47:49;100308.66;;;-1.14;100.00
62111;BME280;48102;47.526;19.072;2023-12-20T06:50:52;100309.53;;;-1.17;100.00
62111;BME280;48102;47.526;19.072;2023-12-20T06:53:55;100323.31;;;-1.13;100.00
62111;BME280;48102;47.526;19.072;2023-12-20T06:56:58;100327.63;;;-1.06;100.00
62111;BME280;48102;47.526;19.072;2023-12-20T07:00:02;100331.06;;;-1.03;100.00
62111;BME280;48102;47.526;19.072;2023-12-20T07:03:06;100325.00;;;-1.00;100.00
62111;BME280;48102;47.526;19.072;2023-12-20T07:06:09;100333.62;;;-0.98;100.00
62111;BME280;48102;47.526;19.072;2023-12-20T07:09:13;100329.34;;;-1.04;100.00
62111;BME280;48102;47.526;19.072;2023-12-20T07:12:16;100325.88;;;-1.04;100.00
62111;BME280;48102;47.526;19.072;2023-12-20T07:15:24;100324.16;;;-1.07;100.00
62111;BME280;48102;47.526;19.072;2023-12-20T07:18:27;100318.16;;;-1.26;100.00
62111;BME280;48102;47.526;19.072;2023-12-20T07:21:30;100312.97;;;-1.21;100.00
62111;BME280;48102;47.526;19.072;2023-12-20T07:24:34;100313.03;;;-1.29;100.00
62111;BME280;48102;47.526;19.072;2023-12-20T07:27:37;100317.28;;;-1.15;100.00
62111;BME280;48102;47.526;19.072;2023-12-20T07:30:40;100314.69;;;-1.03;100.00
62111;BME280;48102;47.526;19.072;2023-12-20T07:33:43;100317.28;;;-1.15;100.00
62111;BME280;48102;47.526;19.072;2023-12-20T07:36:46;100323.31;;;-1.12;100.00
62111;BME280;48102;47.526;19.072;2023-12-20T07:39:49;100319.00;;;-1.13;100.00
62111;BME280;48102;47.526;19.072;2023-12-20T07:42:52;100326.75;;;-0.99;100.00
62111;BME280;48102;47.526;19.072;2023-12-20T07:45:55;100331.87;;;-0.96;100.00
62111;BME280;48102;47.526;19.072;2023-12-20T07:48:58;100323.28;;;-0.95;100.00
62111;BME280;48102;47.526;19.072;2023-12-20T07:52:01;100314.63;;;-0.91;100.00
62111;BME280;48102;47.526;19.072;2023-12-20T07:55:05;100310.34;;;-1.01;100.00
62111;BME280;48102;47.526;19.072;2023-12-20T07:58:08;100307.75;;;-0.96;100.00
62111;BME280;48102;47.526;19.072;2023-12-20T08:01:12;100299.09;;;-0.82;100.00
62111;BME280;48102;47.526;19.072;2023-12-20T08:04:15;100302.47;;;-0.69;100.00
62111;BME280;48102;47.526;19.072;2023-12-20T08:07:18;100300.72;;;-0.62;100.00
62111;BME280;48102;47.526;19.072;2023-12-20T08:10:21;100306.69;;;-0.53;100.00
62111;BME280;48102;47.526;19.072;2023-12-20T08:13:24;100297.22;;;-0.51;100.00
62111;BME280;48102;47.526;19.072;2023-12-20T08:16:29;100297.16;;;-0.41;100.00
62111;BME280;48102;47.526;19.072;2023-12-20T08:19:31;100295.47;;;-0.50;100.00
62111;BME280;48102;47.526;19.072;2023-12-20T08:22:35;100292.13;;;-0.70;100.00
62111;BME280;48102;47.526;19.072;2023-12-20T08:25:37;100285.16;;;-0.61;100.00
62111;BME280;48102;47.526;19.072;2023-12-20T08:28:40;100296.28;;;-0.39;100.00
62111;BME280;48102;47.526;19.072;2023-12-20T08:31:43;100293.66;;;-0.36;100.00
62111;BME280;48102;47.526;19.072;2023-12-20T08:34:46;100297.19;;;-0.52;100.00
62111;BME280;48102;47.526;19.072;2023-12-20T08:37:49;100298.09;;;-0.61;100.00
62111;BME280;48102;47.526;19.072;2023-12-20T08:40:52;100304.13;;;-0.57;100.00
62111;BME280;48102;47.526;19.072;2023-12-20T08:43:55;100307.66;;;-0.72;100.00
62111;BME280;48102;47.526;19.072;2023-12-20T08:46:58;100298.22;;;-0.87;100.00
62111;BME280;48102;47.526;19.072;2023-12-20T08:50:01;100305.84;;;-0.55;100.00
62111;BME280;48102;47.526;19.072;2023-12-20T08:53:05;100310.88;;;-0.26;100.00
62111;BME280;48102;47.526;19.072;2023-12-20T08:56:07;100305.63;;;-0.18;100.00
62111;BME280;48102;47.526;19.072;2023-12-20T08:59:10;100301.34;;;-0.23;100.00
62111;BME280;48102;47.526;19.072;2023-12-20T09:02:14;100302.22;;;-0.26;100.00
62111;BME280;48102;47.526;19.072;2023-12-20T09:05:18;100310.00;;;-0.24;100.00
62111;BME280;48102;47.526;19.072;2023-12-20T09:08:21;100310.72;;;-0.06;100.00
62111;BME280;48102;47.526;19.072;2023-12-20T09:11:24;100307.84;;;0.33;100.00
62111;BME280;48102;47.526;19.072;2023-12-20T09:14:27;100307.63;;;0.56;100.00
62111;BME280;48102;47.526;19.072;2023-12-20T09:17:30;100301.53;;;0.60;100.00
62111;BME280;48102;47.526;19.072;2023-12-20T09:20:36;100298.75;;;0.77;100.00
62111;BME280;48102;47.526;19.072;2023-12-20T09:23:44;100293.38;;;0.95;100.00
62111;BME280;48102;47.526;19.072;2023-12-20T09:26:46;100302.84;;;1.00;100.00
62111;BME280;48102;47.526;19.072;2023-12-20T09:29:49;100298.53;;;0.98;100.00
62111;BME280;48102;47.526;19.072;2023-12-20T09:32:52;100282.84;;;1.07;100.00
62111;BME280;48102;47.526;19.072;2023-12-20T09:35:55;100283.66;;;1.14;100.00
62111;BME280;48102;47.526;19.072;2023-12-20T09:38:58;100264.75;;;1.03;100.00
62111;BME280;48102;47.526;19.072;2023-12-20T09:42:05;100265.53;;;1.09;100.00
62111;BME280;48102;47.526;19.072;2023-12-20T09:45:09;100258.44;;;1.23;100.00
62111;BME280;48102;47.526;19.072;2023-12-20T09:48:17;100250.94;;;0.99;100.00
62111;BME280;48102;47.526;19.072;2023-12-20T09:51:20;100252.62;;;1.05;100.00
62111;BME280;48102;47.526;19.072;2023-12-20T09:54:23;100256.84;;;1.13;100.00
62111;BME280;48102;47.526;19.072;2023-12-20T09:57:26;100245.56;;;1.14;100.00
62111;BME280;48102;47.526;19.072;2023-12-20T10:00:29;100233.31;;;1.24;100.00
62111;BME280;48102;47.526;19.072;2023-12-20T10:03:32;100238.56;;;1.22;100.00
62111;BME280;48102;47.526;19.072;2023-12-20T10:06:36;100236.91;;;1.17;100.00
62111;BME280;48102;47.526;19.072;2023-12-20T10:09:40;100228.22;;;1.16;100.00
62111;BME280;48102;47.526;19.072;2023-12-20T10:13:05;100219.59;;;1.16;100.00
62111;BME280;48102;47.526;19.072;2023-12-20T10:16:09;100220.37;;;1.22;100.00
62111;BME280;48102;47.526;19.072;2023-12-20T10:19:11;100203.81;;;1.31;100.00
62111;BME280;48102;47.526;19.072;2023-12-20T10:22:15;100227.06;;;1.40;100.00
62111;BME280;48102;47.526;19.072;2023-12-20T10:25:18;100219.19;;;1.45;100.00
62111;BME280;48102;47.526;19.072;2023-12-20T10:28:20;100201.84;;;1.48;100.00
62111;BME280;48102;47.526;19.072;2023-12-20T10:34:32;100176.47;;;1.66;100.00
62111;BME280;48102;47.526;19.072;2023-12-20T10:37:38;100172.84;;;1.74;100.00
62111;BME280;48102;47.526;19.072;2023-12-20T10:40:42;100161.38;;;1.88;100.00
62111;BME280;48102;47.526;19.072;2023-12-20T10:43:47;100160.16;;;2.09;100.00
62111;BME280;48102;47.526;19.072;2023-12-20T10:46:50;100149.56;;;2.18;100.00
62111;BME280;48102;47.526;19.072;2023-12-20T10:49:54;100155.69;;;2.15;100.00
62111;BME280;48102;47.526;19.072;2023-12-20T10:52:58;100150.50;;;2.14;100.00
62111;BME280;48102;47.526;19.072;2023-12-20T10:56:02;100129.53;;;2.23;100.00
62111;BME280;48102;47.526;19.072;2023-12-20T10:59:07;100140.62;;;2.33;100.00
62111;BME280;48102;47.526;19.072;2023-12-20T11:02:12;100136.53;;;2.19;100.00
62111;BME280;48102;47.526;19.072;2023-12-20T11:08:46;100147.28;;;2.47;100.00
62111;BME280;48102;47.526;19.072;2023-12-20T11:15:11;100126.62;;;2.80;100.00
62111;BME280;48102;47.526;19.072;2023-12-20T11:18:15;100128.03;;;2.96;100.00
62111;BME280;48102;47.526;19.072;2023-12-20T11:21:18;100114.41;;;3.24;100.00
62111;BME280;48102;47.526;19.072;2023-12-20T11:24:24;100096.56;;;3.43;100.00
62111;BME280;48102;47.526;19.072;2023-12-20T11:27:27;100094.78;;;3.45;100.00
62111;BME280;48102;47.526;19.072;2023-12-20T11:30:40;100090.12;;;3.58;100.00
62111;BME280;48102;47.526;19.072;2023-12-20T11:33:42;100078.00;;;3.57;100.00
62111;BME280;48102;47.526;19.072;2023-12-20T11:36:47;100065.25;;;3.80;100.00
62111;BME280;48102;47.526;19.072;2023-12-20T11:39:56;100059.66;;;3.94;100.00
62111;BME280;48102;47.526;19.072;2023-12-20T11:43:03;100060.94;;;4.10;100.00
62111;BME280;48102;47.526;19.072;2023-12-20T11:46:11;100067.87;;;4.10;100.00
62111;BME280;48102;47.526;19.072;2023-12-20T11:49:14;100075.06;;;4.01;100.00
62111;BME280;48102;47.526;19.072;2023-12-20T11:52:19;100078.94;;;4.19;100.00
62111;BME280;48102;47.526;19.072;2023-12-20T11:55:22;100074.50;;;4.52;100.00
62111;BME280;48102;47.526;19.072;2023-12-20T11:58:26;100073.19;;;4.95;100.00
62111;BME280;48102;47.526;19.072;2023-12-20T12:01:31;100079.09;;;5.55;100.00
62111;BME280;48102;47.526;19.072;2023-12-20T12:04:34;100069.59;;;6.04;100.00
62111;BME280;48102;47.526;19.072;2023-12-20T12:07:37;100059.16;;;6.74;100.00
62111;BME280;48102;47.526;19.072;2023-12-20T12:10:40;100050.13;;;7.47;100.00
62111;BME280;48102;47.526;19.072;2023-12-20T12:13:43;100047.50;;;7.88;99.65
62111;BME280;48102;47.526;19.072;2023-12-20T12:16:46;100046.66;;;8.27;98.68
62111;BME280;48102;47.526;19.072;2023-12-20T12:19:50;100039.59;;;8.48;93.89
62111;BME280;48102;47.526;19.072;2023-12-20T12:23:02;100039.31;;;8.54;94.47
62111;BME280;48102;47.526;19.072;2023-12-20T12:26:06;100039.28;;;8.16;94.82
62111;BME280;48102;47.526;19.072;2023-12-20T12:29:09;100045.06;;;7.84;98.99
62111;BME280;48102;47.526;19.072;2023-12-20T12:32:12;100052.34;;;7.77;100.00
62111;BME280;48102;47.526;19.072;2023-12-20T12:35:16;100049.66;;;7.58;100.00
62111;BME280;48102;47.526;19.072;2023-12-20T12:38:22;100054.19;;;7.33;100.00
62111;BME280;48102;47.526;19.072;2023-12-20T12:41:27;100047.00;;;7.17;100.00
62111;BME280;48102;47.526;19.072;2023-12-20T12:44:31;100050.22;;;7.02;100.00
62111;BME280;48102;47.526;19.072;2023-12-20T12:47:34;100054.47;;;6.83;100.00
62111;BME280;48102;47.526;19.072;2023-12-20T12:50:37;100057.59;;;6.69;100.00
62111;BME280;48102;47.526;19.072;2023-12-20T12:53:40;100059.69;;;6.61;100.00
62111;BME280;48102;47.526;19.072;2023-12-20T12:56:44;100052.47;;;6.44;100.00
62111;BME280;48102;47.526;19.072;2023-12-20T12:59:50;100055.47;;;6.33;100.00
62111;BME280;48102;47.526;19.072;2023-12-20T13:02:52;100060.13;;;6.25;100.00
62111;BME280;48102;47.526;19.072;2023-12-20T13:05:56;100057.84;;;6.16;100.00
62111;BME280;48102;47.526;19.072;2023-12-20T13:08:58;100054.22;;;5.95;100.00
62111;BME280;48102;47.526;19.072;2023-12-20T13:12:02;100054.50;;;5.87;100.00
62111;BME280;48102;47.526;19.072;2023-12-20T13:15:06;100051.22;;;5.81;100.00
62111;BME280;48102;47.526;19.072;2023-12-20T13:18:10;100050.03;;;5.64;100.00
62111;BME280;48102;47.526;19.072;2023-12-20T13:21:13;100054.66;;;5.58;100.00
62111;BME280;48102;47.526;19.072;2023-12-20T13:24:16;100049.72;;;5.48;100.00
62111;BME280;48102;47.526;19.072;2023-12-20T13:27:18;100043.59;;;5.49;100.00
62111;BME280;48102;47.526;19.072;2023-12-20T13:30:22;100037.84;;;5.38;100.00
62111;BME280;48102;47.526;19.072;2023-12-20T13:33:25;100045.78;;;5.35;100.00
62111;BME280;48102;47.526;19.072;2023-12-20T13:36:28;100041.00;;;5.23;100.00
62111;BME280;48102;47.526;19.072;2023-12-20T13:39:31;100049.31;;;5.08;100.00
62111;BME280;48102;47.526;19.072;2023-12-20T13:42:34;100040.63;;;5.07;100.00
62111;BME280;48102;47.526;19.072;2023-12-20T13:45:37;100042.56;;;5.00;100.00
62111;BME280;48102;47.526;19.072;2023-12-20T13:48:40;100045.28;;;4.97;100.00
62111;BME280;48102;47.526;19.072;2023-12-20T13:51:42;100041.72;;;5.00;100.00
62111;BME280;48102;47.526;19.072;2023-12-20T13:54:46;100040.16;;;4.94;100.00
62111;BME280;48102;47.526;19.072;2023-12-20T13:57:48;100031.91;;;4.80;100.00
62111;BME280;48102;47.526;19.072;2023-12-20T14:00:57;100034.06;;;4.66;100.00
62111;BME280;48102;47.526;19.072;2023-12-20T14:04:01;100039.78;;;4.50;100.00
62111;BME280;48102;47.526;19.072;2023-12-20T14:07:04;100033.59;;;4.53;100.00
62111;BME280;48102;47.526;19.072;2023-12-20T14:10:08;100022.56;;;4.45;100.00
62111;BME280;48102;47.526;19.072;2023-12-20T14:13:10;100032.66;;;4.56;100.00
62111;BME280;48102;47.526;19.072;2023-12-20T14:16:14;100040.84;;;4.43;100.00
62111;BME280;48102;47.526;19.072;2023-12-20T14:19:17;100040.13;;;4.38;100.00
62111;BME280;48102;47.526;19.072;2023-12-20T14:22:20;100045.28;;;4.40;100.00
62111;BME280;48102;47.526;19.072;2023-12-20T14:25:23;100051.69;;;4.30;100.00
62111;BME280;48102;47.526;19.072;2023-12-20T14:28:26;100043.09;;;4.26;100.00
62111;BME280;48102;47.526;19.072;2023-12-20T14:31:29;100033.56;;;4.25;100.00
62111;BME280;48102;47.526;19.072;2023-12-20T14:34:32;100038.78;;;4.25;100.00
62111;BME280;48102;47.526;19.072;2023-12-20T14:37:36;100039.34;;;4.36;100.00
62111;BME280;48102;47.526;19.072;2023-12-20T14:40:42;100043.66;;;4.37;100.00
62111;BME280;48102;47.526;19.072;2023-12-20T14:43:44;100045.28;;;4.40;100.00
62111;BME280;48102;47.526;19.072;2023-12-20T14:46:50;100042.78;;;4.37;100.00
62111;BME280;48102;47.526;19.072;2023-12-20T14:49:53;100050.50;;;4.40;100.00
62111;BME280;48102;47.526;19.072;2023-12-20T14:52:56;100054.03;;;4.39;100.00
62111;BME280;48102;47.526;19.072;2023-12-20T14:55:59;100051.59;;;4.33;100.00
62111;BME280;48102;47.526;19.072;2023-12-20T14:59:02;100061.56;;;4.49;100.00
62111;BME280;48102;47.526;19.072;2023-12-20T15:02:05;100063.91;;;4.57;100.00
62111;BME280;48102;47.526;19.072;2023-12-20T15:05:08;100073.69;;;4.50;100.00
62111;BME280;48102;47.526;19.072;2023-12-20T15:08:11;100074.75;;;4.45;100.00
62111;BME280;48102;47.526;19.072;2023-12-20T15:11:14;100080.16;;;4.37;100.00
62111;BME280;48102;47.526;19.072;2023-12-20T15:14:17;100077.19;;;4.18;100.00
62111;BME280;48102;47.526;19.072;2023-12-20T15:17:23;100079.06;;;4.15;100.00
62111;BME280;48102;47.526;19.072;2023-12-20T15:20:28;100082.03;;;4.01;100.00
62111;BME280;48102;47.526;19.072;2023-12-20T15:23:31;100098.75;;;3.94;100.00
62111;BME280;48102;47.526;19.072;2023-12-20T15:26:38;100091.37;;;3.77;100.00
62111;BME280;48102;47.526;19.072;2023-12-20T15:29:41;100104.53;;;3.71;100.00
62111;BME280;48102;47.526;19.072;2023-12-20T15:32:44;100100.22;;;3.71;100.00
62111;BME280;48102;47.526;19.072;2023-12-20T15:35:47;100101.13;;;3.69;100.00
62111;BME280;48102;47.526;19.072;2023-12-20T15:38:50;100109.13;;;3.61;100.00
62111;BME280;48102;47.526;19.072;2023-12-20T15:41:53;100113.72;;;3.51;100.00
62111;BME280;48102;47.526;19.072;2023-12-20T15:44:56;100121.34;;;3.59;100.00
62111;BME280;48102;47.526;19.072;2023-12-20T15:47:59;100118.09;;;3.49;100.00
62111;BME280;48102;47.526;19.072;2023-12-20T15:51:05;100131.25;;;3.45;100.00
62111;BME280;48102;47.526;19.072;2023-12-20T15:54:08;100128.69;;;3.43;100.00
62111;BME280;48102;47.526;19.072;2023-12-20T15:57:11;100137.16;;;3.51;100.00
62111;BME280;48102;47.526;19.072;2023-12-20T16:00:14;100135.53;;;3.47;100.00
62111;BME280;48102;47.526;19.072;2023-12-20T16:03:17;100144.31;;;3.43;100.00
62111;BME280;48102;47.526;19.072;2023-12-20T16:06:27;100151.31;;;3.41;100.00
62111;BME280;48102;47.526;19.072;2023-12-20T16:09:30;100150.53;;;3.36;100.00
62111;BME280;48102;47.526;19.072;2023-12-20T16:12:33;100139.59;;;3.22;100.00
62111;BME280;48102;47.526;19.072;2023-12-20T16:15:36;100149.44;;;3.09;100.00
62111;BME280;48102;47.526;19.072;2023-12-20T16:18:39;100148.53;;;3.12;100.00
62111;BME280;48102;47.526;19.072;2023-12-20T16:21:43;100143.47;;;3.04;100.00
62111;BME280;48102;47.526;19.072;2023-12-20T16:24:46;100153.25;;;2.93;100.00
